Gagetown, Canada
Current Conditions -  °F | °C
As of 12:00 PM on Friday 21 Nov 2014 (Local Time) from CYCX Reporting Station
Broken Clouds Broken Clouds  
Wind Chill: 14°   Ceiling: 3000
Heat Index: 27°   Visibility: 15mi
Dew Point: 14°   Wind: 16mph
Humidity: 59%   Direction: 300°WNW
Pressure: 29.81"   Gusts: 23mph
Location:  45.77°N, 66.15°W
Report Text: CYCX 211600Z 30014G20KT 15SM BKN030 BKN075 M03/M10 A2981 RMKSC6AC1 DA-1820FT TCU EMBD SLP097
Loading
Personal Weather Stations






























Interactive Weather Map New forecast layout! Learn more

10-Day Weather Forecast

Advertisements
Track Severe Weather on mobile